sensor_id;sensor_type;location;lat;lon;timestamp;P1;durP1;ratioP1;P2;durP2;ratioP2
56667;SDS011;42542;48.360;10.958;2024-03-07T00:02:59;21.20;;;7.80;;
56667;SDS011;42542;48.360;10.958;2024-03-07T00:06:27;18.48;;;6.28;;
56667;SDS011;42542;48.360;10.958;2024-03-07T00:09:31;21.23;;;7.50;;
56667;SDS011;42542;48.360;10.958;2024-03-07T00:12:33;20.55;;;7.45;;
56667;SDS011;42542;48.360;10.958;2024-03-07T00:15:37;24.40;;;7.80;;
56667;SDS011;42542;48.360;10.958;2024-03-07T00:18:39;20.40;;;7.03;;
56667;SDS011;42542;48.360;10.958;2024-03-07T00:21:42;16.80;;;6.95;;
56667;SDS011;42542;48.360;10.958;2024-03-07T00:24:44;20.25;;;7.47;;
56667;SDS011;42542;48.360;10.958;2024-03-07T00:27:49;21.55;;;7.88;;
56667;SDS011;42542;48.360;10.958;2024-03-07T00:30:54;21.92;;;8.13;;
56667;SDS011;42542;48.360;10.958;2024-03-07T00:33:57;19.08;;;7.95;;
56667;SDS011;42542;48.360;10.958;2024-03-07T00:37:13;19.60;;;7.28;;
56667;SDS011;42542;48.360;10.958;2024-03-07T00:40:16;19.27;;;7.57;;
56667;SDS011;42542;48.360;10.958;2024-03-07T00:43:18;21.25;;;7.40;;
56667;SDS011;42542;48.360;10.958;2024-03-07T00:46:20;21.65;;;8.10;;
56667;SDS011;42542;48.360;10.958;2024-03-07T00:49:22;18.47;;;7.40;;
56667;SDS011;42542;48.360;10.958;2024-03-07T00:52:24;20.10;;;7.63;;
56667;SDS011;42542;48.360;10.958;2024-03-07T00:55:26;20.00;;;7.85;;
56667;SDS011;42542;48.360;10.958;2024-03-07T00:58:29;22.55;;;8.30;;
56667;SDS011;42542;48.360;10.958;2024-03-07T01:01:31;23.10;;;8.75;;
56667;SDS011;42542;48.360;10.958;2024-03-07T01:04:41;22.35;;;8.20;;
56667;SDS011;42542;48.360;10.958;2024-03-07T01:07:43;20.63;;;8.23;;
56667;SDS011;42542;48.360;10.958;2024-03-07T01:10:45;26.47;;;8.70;;
56667;SDS011;42542;48.360;10.958;2024-03-07T01:13:47;22.67;;;8.35;;
56667;SDS011;42542;48.360;10.958;2024-03-07T01:16:50;23.38;;;9.52;;
56667;SDS011;42542;48.360;10.958;2024-03-07T01:19:52;23.17;;;8.67;;
56667;SDS011;42542;48.360;10.958;2024-03-07T01:22:54;26.50;;;8.50;;
56667;SDS011;42542;48.360;10.958;2024-03-07T01:25:58;21.98;;;8.82;;
56667;SDS011;42542;48.360;10.958;2024-03-07T01:29:00;26.52;;;9.48;;
56667;SDS011;42542;48.360;10.958;2024-03-07T01:32:02;24.63;;;8.82;;
56667;SDS011;42542;48.360;10.958;2024-03-07T01:35:04;23.00;;;9.13;;
56667;SDS011;42542;48.360;10.958;2024-03-07T01:38:08;24.85;;;9.75;;
56667;SDS011;42542;48.360;10.958;2024-03-07T01:41:13;22.97;;;8.80;;
56667;SDS011;42542;48.360;10.958;2024-03-07T01:44:15;27.45;;;10.35;;
56667;SDS011;42542;48.360;10.958;2024-03-07T01:47:18;26.83;;;9.95;;
56667;SDS011;42542;48.360;10.958;2024-03-07T01:50:20;25.33;;;9.53;;
56667;SDS011;42542;48.360;10.958;2024-03-07T01:53:22;26.58;;;9.48;;
56667;SDS011;42542;48.360;10.958;2024-03-07T01:56:24;26.92;;;9.45;;
56667;SDS011;42542;48.360;10.958;2024-03-07T01:59:27;23.17;;;9.05;;
56667;SDS011;42542;48.360;10.958;2024-03-07T02:02:32;22.92;;;8.13;;
56667;SDS011;42542;48.360;10.958;2024-03-07T02:05:35;23.02;;;9.07;;
56667;SDS011;42542;48.360;10.958;2024-03-07T02:08:38;24.38;;;9.40;;
56667;SDS011;42542;48.360;10.958;2024-03-07T02:11:41;20.67;;;8.27;;
56667;SDS011;42542;48.360;10.958;2024-03-07T02:14:43;23.25;;;8.93;;
56667;SDS011;42542;48.360;10.958;2024-03-07T02:17:45;20.92;;;8.63;;
56667;SDS011;42542;48.360;10.958;2024-03-07T02:20:47;23.80;;;9.23;;
56667;SDS011;42542;48.360;10.958;2024-03-07T02:23:50;24.92;;;9.48;;
56667;SDS011;42542;48.360;10.958;2024-03-07T02:26:51;22.48;;;8.95;;
56667;SDS011;42542;48.360;10.958;2024-03-07T02:29:54;23.27;;;9.05;;
56667;SDS011;42542;48.360;10.958;2024-03-07T02:32:56;20.95;;;8.10;;
56667;SDS011;42542;48.360;10.958;2024-03-07T02:35:58;24.40;;;8.52;;
56667;SDS011;42542;48.360;10.958;2024-03-07T02:39:00;24.20;;;8.15;;
56667;SDS011;42542;48.360;10.958;2024-03-07T02:42:02;20.70;;;7.37;;
56667;SDS011;42542;48.360;10.958;2024-03-07T02:45:04;16.70;;;6.88;;
56667;SDS011;42542;48.360;10.958;2024-03-07T02:48:06;16.73;;;6.95;;
56667;SDS011;42542;48.360;10.958;2024-03-07T02:51:13;30.90;;;6.90;;
56667;SDS011;42542;48.360;10.958;2024-03-07T02:54:14;15.68;;;6.20;;
56667;SDS011;42542;48.360;10.958;2024-03-07T02:57:17;16.40;;;6.22;;
56667;SDS011;42542;48.360;10.958;2024-03-07T03:00:19;17.17;;;6.70;;
56667;SDS011;42542;48.360;10.958;2024-03-07T03:03:21;17.35;;;5.78;;
56667;SDS011;42542;48.360;10.958;2024-03-07T03:06:23;14.63;;;5.93;;
56667;SDS011;42542;48.360;10.958;2024-03-07T03:09:26;14.50;;;5.57;;
56667;SDS011;42542;48.360;10.958;2024-03-07T03:12:29;15.87;;;6.40;;
56667;SDS011;42542;48.360;10.958;2024-03-07T03:15:31;16.70;;;6.60;;
56667;SDS011;42542;48.360;10.958;2024-03-07T03:18:33;19.83;;;6.03;;
56667;SDS011;42542;48.360;10.958;2024-03-07T03:21:35;15.60;;;6.40;;
56667;SDS011;42542;48.360;10.958;2024-03-07T03:24:38;13.73;;;5.57;;
56667;SDS011;42542;48.360;10.958;2024-03-07T03:27:42;15.55;;;6.03;;
56667;SDS011;42542;48.360;10.958;2024-03-07T03:30:44;15.65;;;6.03;;
56667;SDS011;42542;48.360;10.958;2024-03-07T03:33:46;14.93;;;5.70;;
56667;SDS011;42542;48.360;10.958;2024-03-07T03:36:48;13.23;;;5.28;;
56667;SDS011;42542;48.360;10.958;2024-03-07T03:39:50;16.83;;;5.35;;
56667;SDS011;42542;48.360;10.958;2024-03-07T03:42:52;16.20;;;5.73;;
56667;SDS011;42542;48.360;10.958;2024-03-07T03:45:54;15.80;;;5.93;;
56667;SDS011;42542;48.360;10.958;2024-03-07T03:48:56;18.38;;;6.90;;
56667;SDS011;42542;48.360;10.958;2024-03-07T03:51:59;16.43;;;6.33;;
56667;SDS011;42542;48.360;10.958;2024-03-07T03:55:02;18.33;;;6.68;;
56667;SDS011;42542;48.360;10.958;2024-03-07T03:58:05;19.67;;;6.75;;
56667;SDS011;42542;48.360;10.958;2024-03-07T04:01:07;19.75;;;7.22;;
56667;SDS011;42542;48.360;10.958;2024-03-07T04:04:15;23.88;;;7.90;;
56667;SDS011;42542;48.360;10.958;2024-03-07T04:07:17;24.77;;;8.93;;
56667;SDS011;42542;48.360;10.958;2024-03-07T04:10:22;22.30;;;9.00;;
56667;SDS011;42542;48.360;10.958;2024-03-07T04:13:23;21.07;;;8.43;;
56667;SDS011;42542;48.360;10.958;2024-03-07T04:16:25;21.20;;;9.18;;
56667;SDS011;42542;48.360;10.958;2024-03-07T04:19:27;26.33;;;9.93;;
56667;SDS011;42542;48.360;10.958;2024-03-07T04:22:29;25.73;;;9.33;;
56667;SDS011;42542;48.360;10.958;2024-03-07T04:25:31;29.42;;;10.57;;
56667;SDS011;42542;48.360;10.958;2024-03-07T04:28:34;30.67;;;11.30;;
56667;SDS011;42542;48.360;10.958;2024-03-07T04:31:36;29.50;;;10.82;;
56667;SDS011;42542;48.360;10.958;2024-03-07T04:34:39;30.40;;;11.65;;
56667;SDS011;42542;48.360;10.958;2024-03-07T04:37:41;30.80;;;11.57;;
56667;SDS011;42542;48.360;10.958;2024-03-07T04:40:43;26.05;;;11.15;;
56667;SDS011;42542;48.360;10.958;2024-03-07T04:43:45;29.13;;;11.60;;
56667;SDS011;42542;48.360;10.958;2024-03-07T04:46:47;27.80;;;11.32;;
56667;SDS011;42542;48.360;10.958;2024-03-07T04:49:51;35.60;;;11.45;;
56667;SDS011;42542;48.360;10.958;2024-03-07T04:52:53;34.07;;;11.60;;
56667;SDS011;42542;48.360;10.958;2024-03-07T04:55:55;32.75;;;11.45;;
56667;SDS011;42542;48.360;10.958;2024-03-07T04:59:00;29.58;;;10.82;;
56667;SDS011;42542;48.360;10.958;2024-03-07T05:02:02;30.55;;;11.02;;
56667;SDS011;42542;48.360;10.958;2024-03-07T05:05:04;29.55;;;11.10;;
56667;SDS011;42542;48.360;10.958;2024-03-07T05:08:05;30.70;;;11.68;;
56667;SDS011;42542;48.360;10.958;2024-03-07T05:11:07;30.80;;;11.40;;
56667;SDS011;42542;48.360;10.958;2024-03-07T05:14:09;31.37;;;11.23;;
56667;SDS011;42542;48.360;10.958;2024-03-07T05:17:12;29.73;;;11.60;;
56667;SDS011;42542;48.360;10.958;2024-03-07T05:20:13;29.48;;;10.30;;
56667;SDS011;42542;48.360;10.958;2024-03-07T05:23:16;28.07;;;10.37;;
56667;SDS011;42542;48.360;10.958;2024-03-07T05:26:19;33.67;;;11.10;;
56667;SDS011;42542;48.360;10.958;2024-03-07T05:29:22;29.88;;;11.27;;
56667;SDS011;42542;48.360;10.958;2024-03-07T05:32:24;31.92;;;12.20;;
56667;SDS011;42542;48.360;10.958;2024-03-07T05:35:27;38.63;;;12.68;;
56667;SDS011;42542;48.360;10.958;2024-03-07T05:38:31;36.40;;;13.43;;
56667;SDS011;42542;48.360;10.958;2024-03-07T05:41:33;34.55;;;12.32;;
56667;SDS011;42542;48.360;10.958;2024-03-07T05:44:36;39.37;;;13.77;;
56667;SDS011;42542;48.360;10.958;2024-03-07T05:47:38;33.60;;;12.93;;
56667;SDS011;42542;48.360;10.958;2024-03-07T05:50:40;37.85;;;13.45;;
56667;SDS011;42542;48.360;10.958;2024-03-07T05:53:45;35.00;;;12.90;;
56667;SDS011;42542;48.360;10.958;2024-03-07T05:56:46;36.15;;;13.07;;
56667;SDS011;42542;48.360;10.958;2024-03-07T05:59:50;37.67;;;12.77;;
56667;SDS011;42542;48.360;10.958;2024-03-07T06:02:52;38.28;;;12.55;;
56667;SDS011;42542;48.360;10.958;2024-03-07T06:05:55;38.15;;;12.60;;
56667;SDS011;42542;48.360;10.958;2024-03-07T06:08:57;34.55;;;13.80;;
56667;SDS011;42542;48.360;10.958;2024-03-07T06:12:00;30.83;;;11.70;;
56667;SDS011;42542;48.360;10.958;2024-03-07T06:15:13;34.30;;;12.07;;
56667;SDS011;42542;48.360;10.958;2024-03-07T06:18:16;34.17;;;12.07;;
56667;SDS011;42542;48.360;10.958;2024-03-07T06:21:18;40.17;;;12.65;;
56667;SDS011;42542;48.360;10.958;2024-03-07T06:24:21;35.43;;;12.73;;
56667;SDS011;42542;48.360;10.958;2024-03-07T06:27:24;41.55;;;13.52;;
56667;SDS011;42542;48.360;10.958;2024-03-07T06:30:48;38.97;;;12.20;;
56667;SDS011;42542;48.360;10.958;2024-03-07T06:33:50;33.72;;;12.63;;
56667;SDS011;42542;48.360;10.958;2024-03-07T06:36:53;37.25;;;12.02;;
56667;SDS011;42542;48.360;10.958;2024-03-07T06:39:56;35.63;;;13.10;;
56667;SDS011;42542;48.360;10.958;2024-03-07T06:42:59;36.35;;;13.38;;
56667;SDS011;42542;48.360;10.958;2024-03-07T06:46:01;38.83;;;12.70;;
56667;SDS011;42542;48.360;10.958;2024-03-07T06:49:03;33.97;;;12.38;;
56667;SDS011;42542;48.360;10.958;2024-03-07T06:52:12;35.38;;;12.35;;
56667;SDS011;42542;48.360;10.958;2024-03-07T06:55:15;35.07;;;12.93;;
56667;SDS011;42542;48.360;10.958;2024-03-07T06:58:21;41.47;;;12.52;;
56667;SDS011;42542;48.360;10.958;2024-03-07T07:01:24;42.85;;;13.07;;
56667;SDS011;42542;48.360;10.958;2024-03-07T07:04:26;34.72;;;13.05;;
56667;SDS011;42542;48.360;10.958;2024-03-07T07:07:34;37.03;;;13.10;;
56667;SDS011;42542;48.360;10.958;2024-03-07T07:10:37;38.92;;;13.85;;
56667;SDS011;42542;48.360;10.958;2024-03-07T07:13:41;44.65;;;14.10;;
56667;SDS011;42542;48.360;10.958;2024-03-07T07:16:43;38.47;;;13.50;;
56667;SDS011;42542;48.360;10.958;2024-03-07T07:19:47;38.28;;;12.77;;
56667;SDS011;42542;48.360;10.958;2024-03-07T07:22:49;35.72;;;13.32;;
56667;SDS011;42542;48.360;10.958;2024-03-07T07:25:52;37.67;;;13.23;;
56667;SDS011;42542;48.360;10.958;2024-03-07T07:28:53;40.58;;;14.63;;
56667;SDS011;42542;48.360;10.958;2024-03-07T07:31:56;36.95;;;13.27;;
56667;SDS011;42542;48.360;10.958;2024-03-07T07:34:58;33.60;;;12.57;;
56667;SDS011;42542;48.360;10.958;2024-03-07T07:37:59;37.75;;;13.45;;
56667;SDS011;42542;48.360;10.958;2024-03-07T07:41:01;43.45;;;14.15;;
56667;SDS011;42542;48.360;10.958;2024-03-07T07:44:03;36.90;;;12.68;;
56667;SDS011;42542;48.360;10.958;2024-03-07T07:47:05;38.03;;;13.93;;
56667;SDS011;42542;48.360;10.958;2024-03-07T07:50:07;38.47;;;13.60;;
56667;SDS011;42542;48.360;10.958;2024-03-07T07:53:19;38.53;;;14.20;;
56667;SDS011;42542;48.360;10.958;2024-03-07T07:56:21;37.10;;;12.93;;
56667;SDS011;42542;48.360;10.958;2024-03-07T07:59:26;35.10;;;13.43;;
56667;SDS011;42542;48.360;10.958;2024-03-07T08:02:28;36.90;;;13.48;;
56667;SDS011;42542;48.360;10.958;2024-03-07T08:05:32;36.05;;;13.85;;
56667;SDS011;42542;48.360;10.958;2024-03-07T08:08:35;39.05;;;13.40;;
56667;SDS011;42542;48.360;10.958;2024-03-07T08:11:37;39.95;;;15.05;;
56667;SDS011;42542;48.360;10.958;2024-03-07T08:14:40;36.03;;;14.25;;
56667;SDS011;42542;48.360;10.958;2024-03-07T08:17:42;39.30;;;14.13;;
56667;SDS011;42542;48.360;10.958;2024-03-07T08:20:48;39.72;;;14.05;;
56667;SDS011;42542;48.360;10.958;2024-03-07T08:23:55;38.88;;;13.80;;
56667;SDS011;42542;48.360;10.958;2024-03-07T08:26:57;40.47;;;14.93;;
56667;SDS011;42542;48.360;10.958;2024-03-07T08:29:59;47.05;;;14.93;;
56667;SDS011;42542;48.360;10.958;2024-03-07T08:33:01;39.47;;;14.55;;
56667;SDS011;42542;48.360;10.958;2024-03-07T08:36:08;39.35;;;14.68;;
56667;SDS011;42542;48.360;10.958;2024-03-07T08:39:11;43.03;;;14.40;;
56667;SDS011;42542;48.360;10.958;2024-03-07T08:42:16;42.72;;;14.80;;
56667;SDS011;42542;48.360;10.958;2024-03-07T08:45:19;40.80;;;14.65;;
56667;SDS011;42542;48.360;10.958;2024-03-07T08:48:21;38.03;;;14.67;;
56667;SDS011;42542;48.360;10.958;2024-03-07T08:51:23;45.95;;;15.02;;
56667;SDS011;42542;48.360;10.958;2024-03-07T08:54:25;39.05;;;14.85;;
56667;SDS011;42542;48.360;10.958;2024-03-07T08:57:27;41.50;;;15.13;;
56667;SDS011;42542;48.360;10.958;2024-03-07T09:00:29;41.50;;;14.18;;
56667;SDS011;42542;48.360;10.958;2024-03-07T09:03:36;42.15;;;14.82;;
56667;SDS011;42542;48.360;10.958;2024-03-07T09:06:40;43.53;;;15.13;;
56667;SDS011;42542;48.360;10.958;2024-03-07T09:09:43;47.75;;;16.60;;
56667;SDS011;42542;48.360;10.958;2024-03-07T09:12:49;40.47;;;14.00;;
56667;SDS011;42542;48.360;10.958;2024-03-07T09:15:53;41.40;;;15.25;;
56667;SDS011;42542;48.360;10.958;2024-03-07T09:18:56;44.07;;;14.43;;
56667;SDS011;42542;48.360;10.958;2024-03-07T09:21:57;42.45;;;15.68;;
56667;SDS011;42542;48.360;10.958;2024-03-07T09:25:00;43.28;;;14.20;;
56667;SDS011;42542;48.360;10.958;2024-03-07T09:28:03;44.87;;;15.23;;
56667;SDS011;42542;48.360;10.958;2024-03-07T09:31:05;37.33;;;14.60;;
56667;SDS011;42542;48.360;10.958;2024-03-07T09:34:07;41.45;;;15.25;;
56667;SDS011;42542;48.360;10.958;2024-03-07T09:37:11;46.33;;;15.43;;
56667;SDS011;42542;48.360;10.958;2024-03-07T09:40:12;39.88;;;14.52;;
56667;SDS011;42542;48.360;10.958;2024-03-07T09:43:16;43.55;;;16.00;;
56667;SDS011;42542;48.360;10.958;2024-03-07T09:46:24;44.53;;;16.23;;
56667;SDS011;42542;48.360;10.958;2024-03-07T09:49:27;40.30;;;14.60;;
56667;SDS011;42542;48.360;10.958;2024-03-07T09:52:29;41.45;;;15.98;;
56667;SDS011;42542;48.360;10.958;2024-03-07T09:55:32;44.67;;;15.75;;
56667;SDS011;42542;48.360;10.958;2024-03-07T09:58:34;45.33;;;16.27;;
56667;SDS011;42542;48.360;10.958;2024-03-07T10:01:41;42.72;;;15.85;;
56667;SDS011;42542;48.360;10.958;2024-03-07T10:04:49;44.78;;;15.63;;
56667;SDS011;42542;48.360;10.958;2024-03-07T10:07:54;45.92;;;16.75;;
56667;SDS011;42542;48.360;10.958;2024-03-07T10:10:56;42.08;;;15.77;;
56667;SDS011;42542;48.360;10.958;2024-03-07T10:13:59;43.33;;;16.20;;
56667;SDS011;42542;48.360;10.958;2024-03-07T10:17:01;42.85;;;15.65;;
56667;SDS011;42542;48.360;10.958;2024-03-07T10:20:03;44.90;;;16.37;;
56667;SDS011;42542;48.360;10.958;2024-03-07T10:23:05;47.05;;;16.90;;
56667;SDS011;42542;48.360;10.958;2024-03-07T10:26:12;45.45;;;16.30;;
56667;SDS011;42542;48.360;10.958;2024-03-07T10:29:14;43.87;;;15.90;;
56667;SDS011;42542;48.360;10.958;2024-03-07T10:32:19;46.22;;;16.58;;
56667;SDS011;42542;48.360;10.958;2024-03-07T10:35:22;39.83;;;14.90;;
56667;SDS011;42542;48.360;10.958;2024-03-07T10:38:28;42.72;;;15.18;;
56667;SDS011;42542;48.360;10.958;2024-03-07T10:41:29;44.03;;;16.20;;
56667;SDS011;42542;48.360;10.958;2024-03-07T10:44:38;43.67;;;15.82;;
56667;SDS011;42542;48.360;10.958;2024-03-07T10:47:45;39.55;;;15.23;;
56667;SDS011;42542;48.360;10.958;2024-03-07T10:54:24;40.15;;;15.18;;
56667;SDS011;42542;48.360;10.958;2024-03-07T10:57:50;40.63;;;14.60;;
56667;SDS011;42542;48.360;10.958;2024-03-07T11:00:56;38.43;;;15.27;;
56667;SDS011;42542;48.360;10.958;2024-03-07T11:04:03;41.92;;;14.88;;
56667;SDS011;42542;48.360;10.958;2024-03-07T11:07:07;36.33;;;13.80;;
56667;SDS011;42542;48.360;10.958;2024-03-07T11:10:13;35.25;;;13.45;;
56667;SDS011;42542;48.360;10.958;2024-03-07T11:13:19;42.22;;;15.30;;
56667;SDS011;42542;48.360;10.958;2024-03-07T11:16:22;37.50;;;14.98;;
56667;SDS011;42542;48.360;10.958;2024-03-07T11:19:24;35.72;;;14.27;;
56667;SDS011;42542;48.360;10.958;2024-03-07T11:22:38;34.80;;;13.63;;
56667;SDS011;42542;48.360;10.958;2024-03-07T11:25:40;34.40;;;13.98;;
56667;SDS011;42542;48.360;10.958;2024-03-07T11:28:44;36.03;;;13.63;;
56667;SDS011;42542;48.360;10.958;2024-03-07T11:31:48;35.70;;;13.67;;
56667;SDS011;42542;48.360;10.958;2024-03-07T11:34:54;32.20;;;13.07;;
56667;SDS011;42542;48.360;10.958;2024-03-07T11:37:57;37.05;;;14.05;;
56667;SDS011;42542;48.360;10.958;2024-03-07T11:40:59;34.00;;;12.82;;
56667;SDS011;42542;48.360;10.958;2024-03-07T11:44:03;31.85;;;12.55;;
56667;SDS011;42542;48.360;10.958;2024-03-07T11:47:07;32.22;;;12.82;;
56667;SDS011;42542;48.360;10.958;2024-03-07T11:50:12;33.92;;;13.02;;
56667;SDS011;42542;48.360;10.958;2024-03-07T11:53:14;32.83;;;13.87;;
56667;SDS011;42542;48.360;10.958;2024-03-07T11:56:17;32.85;;;13.30;;
56667;SDS011;42542;48.360;10.958;2024-03-07T11:59:19;34.08;;;12.80;;
56667;SDS011;42542;48.360;10.958;2024-03-07T12:02:21;34.63;;;12.97;;
56667;SDS011;42542;48.360;10.958;2024-03-07T12:05:24;33.28;;;12.95;;
56667;SDS011;42542;48.360;10.958;2024-03-07T12:08:29;28.98;;;11.73;;
56667;SDS011;42542;48.360;10.958;2024-03-07T12:11:31;33.47;;;11.82;;
56667;SDS011;42542;48.360;10.958;2024-03-07T12:14:33;29.58;;;11.43;;
56667;SDS011;42542;48.360;10.958;2024-03-07T12:17:36;33.28;;;11.98;;
56667;SDS011;42542;48.360;10.958;2024-03-07T12:20:39;29.17;;;11.35;;
56667;SDS011;42542;48.360;10.958;2024-03-07T12:23:42;29.33;;;11.23;;
56667;SDS011;42542;48.360;10.958;2024-03-07T12:26:44;29.60;;;10.90;;
56667;SDS011;42542;48.360;10.958;2024-03-07T12:29:47;27.40;;;10.32;;
56667;SDS011;42542;48.360;10.958;2024-03-07T12:32:51;24.43;;;9.87;;
56667;SDS011;42542;48.360;10.958;2024-03-07T12:35:54;26.02;;;9.55;;
56667;SDS011;42542;48.360;10.958;2024-03-07T12:39:07;27.13;;;10.38;;
56667;SDS011;42542;48.360;10.958;2024-03-07T12:42:27;24.33;;;9.48;;
56667;SDS011;42542;48.360;10.958;2024-03-07T12:45:31;26.05;;;10.00;;
56667;SDS011;42542;48.360;10.958;2024-03-07T12:48:35;25.45;;;9.55;;
56667;SDS011;42542;48.360;10.958;2024-03-07T12:51:40;25.52;;;10.48;;
56667;SDS011;42542;48.360;10.958;2024-03-07T12:54:43;23.70;;;8.40;;
56667;SDS011;42542;48.360;10.958;2024-03-07T12:57:45;28.25;;;9.80;;
56667;SDS011;42542;48.360;10.958;2024-03-07T13:00:47;25.20;;;9.27;;
56667;SDS011;42542;48.360;10.958;2024-03-07T13:03:50;22.00;;;8.67;;
56667;SDS011;42542;48.360;10.958;2024-03-07T13:06:51;24.33;;;9.05;;
56667;SDS011;42542;48.360;10.958;2024-03-07T13:09:53;22.30;;;9.15;;
56667;SDS011;42542;48.360;10.958;2024-03-07T13:12:55;24.65;;;9.35;;
56667;SDS011;42542;48.360;10.958;2024-03-07T13:15:57;28.33;;;9.60;;
56667;SDS011;42542;48.360;10.958;2024-03-07T13:18:59;29.73;;;10.48;;
56667;SDS011;42542;48.360;10.958;2024-03-07T13:22:06;25.15;;;9.50;;
56667;SDS011;42542;48.360;10.958;2024-03-07T13:25:12;27.07;;;9.93;;
56667;SDS011;42542;48.360;10.958;2024-03-07T13:28:19;23.83;;;9.35;;
56667;SDS011;42542;48.360;10.958;2024-03-07T13:31:26;29.23;;;9.70;;
56667;SDS011;42542;48.360;10.958;2024-03-07T13:34:28;22.37;;;9.13;;
56667;SDS011;42542;48.360;10.958;2024-03-07T13:37:31;27.23;;;9.77;;
56667;SDS011;42542;48.360;10.958;2024-03-07T13:40:36;25.20;;;9.52;;
56667;SDS011;42542;48.360;10.958;2024-03-07T13:43:40;24.27;;;9.40;;
56667;SDS011;42542;48.360;10.958;2024-03-07T13:46:42;26.30;;;9.40;;
56667;SDS011;42542;48.360;10.958;2024-03-07T13:49:44;24.77;;;9.60;;
56667;SDS011;42542;48.360;10.958;2024-03-07T13:52:49;25.50;;;10.13;;
56667;SDS011;42542;48.360;10.958;2024-03-07T13:59:20;23.10;;;8.85;;
56667;SDS011;42542;48.360;10.958;2024-03-07T14:05:52;23.87;;;9.20;;
56667;SDS011;42542;48.360;10.958;2024-03-07T14:09:14;25.25;;;10.00;;
56667;SDS011;42542;48.360;10.958;2024-03-07T14:16:43;22.70;;;9.05;;
56667;SDS011;42542;48.360;10.958;2024-03-07T14:27:15;26.30;;;10.35;;
56667;SDS011;42542;48.360;10.958;2024-03-07T14:37:22;29.35;;;9.45;;
56667;SDS011;42542;48.360;10.958;2024-03-07T14:40:26;28.23;;;10.17;;
56667;SDS011;42542;48.360;10.958;2024-03-07T14:43:29;25.63;;;10.10;;
56667;SDS011;42542;48.360;10.958;2024-03-07T14:46:32;25.40;;;10.05;;
56667;SDS011;42542;48.360;10.958;2024-03-07T14:49:35;28.95;;;10.20;;
56667;SDS011;42542;48.360;10.958;2024-03-07T14:52:37;27.30;;;10.63;;
56667;SDS011;42542;48.360;10.958;2024-03-07T14:55:43;27.55;;;10.55;;
56667;SDS011;42542;48.360;10.958;2024-03-07T14:58:46;27.92;;;10.25;;
56667;SDS011;42542;48.360;10.958;2024-03-07T15:01:48;26.07;;;10.13;;
56667;SDS011;42542;48.360;10.958;2024-03-07T15:04:50;24.73;;;9.13;;
56667;SDS011;42542;48.360;10.958;2024-03-07T15:07:52;26.65;;;9.63;;
56667;SDS011;42542;48.360;10.958;2024-03-07T15:10:57;24.27;;;8.97;;
56667;SDS011;42542;48.360;10.958;2024-03-07T15:14:08;23.83;;;9.82;;
56667;SDS011;42542;48.360;10.958;2024-03-07T15:17:10;28.00;;;9.63;;
56667;SDS011;42542;48.360;10.958;2024-03-07T15:20:12;26.25;;;10.13;;
56667;SDS011;42542;48.360;10.958;2024-03-07T15:23:23;25.38;;;9.80;;
56667;SDS011;42542;48.360;10.958;2024-03-07T15:26:26;26.85;;;9.85;;
56667;SDS011;42542;48.360;10.958;2024-03-07T15:29:29;27.00;;;9.23;;
56667;SDS011;42542;48.360;10.958;2024-03-07T15:32:33;25.63;;;9.23;;
56667;SDS011;42542;48.360;10.958;2024-03-07T15:35:35;25.90;;;9.68;;
56667;SDS011;42542;48.360;10.958;2024-03-07T15:38:37;24.38;;;9.27;;
56667;SDS011;42542;48.360;10.958;2024-03-07T15:41:39;22.43;;;8.77;;
56667;SDS011;42542;48.360;10.958;2024-03-07T15:44:43;23.80;;;9.57;;
56667;SDS011;42542;48.360;10.958;2024-03-07T15:47:47;23.15;;;9.32;;
56667;SDS011;42542;48.360;10.958;2024-03-07T15:50:51;27.38;;;9.77;;
56667;SDS011;42542;48.360;10.958;2024-03-07T15:53:54;22.40;;;9.13;;
56667;SDS011;42542;48.360;10.958;2024-03-07T15:56:56;28.15;;;9.80;;
56667;SDS011;42542;48.360;10.958;2024-03-07T15:59:58;23.10;;;9.40;;
56667;SDS011;42542;48.360;10.958;2024-03-07T16:03:01;26.93;;;10.43;;
56667;SDS011;42542;48.360;10.958;2024-03-07T16:06:05;24.08;;;9.90;;
56667;SDS011;42542;48.360;10.958;2024-03-07T16:09:07;28.77;;;10.27;;
56667;SDS011;42542;48.360;10.958;2024-03-07T16:12:09;25.97;;;9.93;;
56667;SDS011;42542;48.360;10.958;2024-03-07T16:15:12;24.98;;;9.57;;
56667;SDS011;42542;48.360;10.958;2024-03-07T16:18:16;30.45;;;11.18;;
56667;SDS011;42542;48.360;10.958;2024-03-07T16:21:22;42.28;;;13.52;;
56667;SDS011;42542;48.360;10.958;2024-03-07T16:24:24;47.33;;;17.13;;
56667;SDS011;42542;48.360;10.958;2024-03-07T16:27:26;32.65;;;12.70;;
56667;SDS011;42542;48.360;10.958;2024-03-07T16:30:28;27.77;;;12.48;;
56667;SDS011;42542;48.360;10.958;2024-03-07T16:33:33;26.03;;;10.60;;
56667;SDS011;42542;48.360;10.958;2024-03-07T16:36:35;24.75;;;10.68;;
56667;SDS011;42542;48.360;10.958;2024-03-07T16:39:37;30.17;;;11.07;;
56667;SDS011;42542;48.360;10.958;2024-03-07T16:42:39;27.53;;;11.60;;
56667;SDS011;42542;48.360;10.958;2024-03-07T16:45:42;28.17;;;10.80;;
56667;SDS011;42542;48.360;10.958;2024-03-07T16:48:44;27.60;;;9.48;;
56667;SDS011;42542;48.360;10.958;2024-03-07T16:51:46;29.70;;;12.00;;
56667;SDS011;42542;48.360;10.958;2024-03-07T16:54:48;26.30;;;10.95;;
56667;SDS011;42542;48.360;10.958;2024-03-07T16:57:50;26.73;;;10.25;;
56667;SDS011;42542;48.360;10.958;2024-03-07T17:01:09;32.80;;;11.85;;
56667;SDS011;42542;48.360;10.958;2024-03-07T17:04:11;25.90;;;10.67;;
56667;SDS011;42542;48.360;10.958;2024-03-07T17:11:19;24.60;;;9.52;;
56667;SDS011;42542;48.360;10.958;2024-03-07T17:14:32;26.53;;;9.83;;
56667;SDS011;42542;48.360;10.958;2024-03-07T17:17:46;26.90;;;9.63;;
56667;SDS011;42542;48.360;10.958;2024-03-07T17:20:50;25.00;;;9.38;;
56667;SDS011;42542;48.360;10.958;2024-03-07T17:24:08;31.20;;;10.45;;
56667;SDS011;42542;48.360;10.958;2024-03-07T17:27:21;29.25;;;10.45;;
56667;SDS011;42542;48.360;10.958;2024-03-07T17:30:24;25.98;;;9.43;;
56667;SDS011;42542;48.360;10.958;2024-03-07T17:33:27;23.65;;;9.48;;
56667;SDS011;42542;48.360;10.958;2024-03-07T17:36:29;25.80;;;9.63;;
56667;SDS011;42542;48.360;10.958;2024-03-07T17:39:35;27.90;;;10.07;;
56667;SDS011;42542;48.360;10.958;2024-03-07T17:42:37;24.23;;;9.50;;
56667;SDS011;42542;48.360;10.958;2024-03-07T17:45:38;29.83;;;10.53;;
56667;SDS011;42542;48.360;10.958;2024-03-07T17:48:41;23.50;;;9.15;;
56667;SDS011;42542;48.360;10.958;2024-03-07T17:51:42;23.67;;;8.90;;
56667;SDS011;42542;48.360;10.958;2024-03-07T17:54:44;28.67;;;9.68;;
56667;SDS011;42542;48.360;10.958;2024-03-07T17:57:49;26.83;;;9.55;;
56667;SDS011;42542;48.360;10.958;2024-03-07T18:00:52;22.73;;;8.93;;
56667;SDS011;42542;48.360;10.958;2024-03-07T18:03:54;20.35;;;8.10;;
56667;SDS011;42542;48.360;10.958;2024-03-07T18:06:57;23.17;;;8.13;;
56667;SDS011;42542;48.360;10.958;2024-03-07T18:09:58;25.55;;;8.95;;
56667;SDS011;42542;48.360;10.958;2024-03-07T18:13:01;22.45;;;8.57;;
56667;SDS011;42542;48.360;10.958;2024-03-07T18:16:04;23.77;;;9.40;;
56667;SDS011;42542;48.360;10.958;2024-03-07T18:19:09;23.30;;;9.32;;